sensor_id;sensor_type;location;lat;lon;timestamp;pressure;altitude;pressure_sealevel;temperature;humidity
5952;BME280;3001;42.622;23.194;2023-02-28T00:00:19;91659.00;;;9.46;99.28
5952;BME280;3001;42.622;23.194;2023-02-28T00:02:47;91662.19;;;9.43;98.57
5952;BME280;3001;42.622;23.194;2023-02-28T00:05:16;91669.88;;;9.48;97.97
5952;BME280;3001;42.622;23.194;2023-02-28T00:07:43;91669.78;;;9.21;99.19
5952;BME280;3001;42.622;23.194;2023-02-28T00:10:11;91662.09;;;9.16;99.32
5952;BME280;3001;42.622;23.194;2023-02-28T00:12:39;91657.19;;;9.14;98.78
5952;BME280;3001;42.622;23.194;2023-02-28T00:15:10;91667.41;;;9.24;98.75
5952;BME280;3001;42.622;23.194;2023-02-28T00:17:37;91666.13;;;9.22;98.29
5952;BME280;3001;42.622;23.194;2023-02-28T00:20:06;91669.56;;;9.17;98.10
5952;BME280;3001;42.622;23.194;2023-02-28T00:22:35;91678.06;;;9.04;99.09
5952;BME280;3001;42.622;23.194;2023-02-28T00:25:03;91653.69;;;8.87;99.65
5952;BME280;3001;42.622;23.194;2023-02-28T00:27:29;91678.50;;;8.93;99.61
5952;BME280;3001;42.622;23.194;2023-02-28T00:29:56;91680.31;;;8.92;100.00
5952;BME280;3001;42.622;23.194;2023-02-28T00:32:24;91672.63;;;8.87;99.82
5952;BME280;3001;42.622;23.194;2023-02-28T00:34:51;91671.47;;;8.93;100.00
5952;BME280;3001;42.622;23.194;2023-02-28T00:37:18;91682.28;;;9.00;98.46
5952;BME280;3001;42.622;23.194;2023-02-28T00:39:45;91672.09;;;9.04;97.48
5952;BME280;3001;42.622;23.194;2023-02-28T00:42:11;91671.78;;;8.92;98.57
5952;BME280;3001;42.622;23.194;2023-02-28T00:44:38;91669.03;;;9.02;98.28
5952;BME280;3001;42.622;23.194;2023-02-28T00:47:05;91678.53;;;8.88;98.31
5952;BME280;3001;42.622;23.194;2023-02-28T00:49:33;91669.47;;;8.90;98.15
5952;BME280;3001;42.622;23.194;2023-02-28T00:52:00;91662.47;;;8.91;97.67
5952;BME280;3001;42.622;23.194;2023-02-28T00:54:26;91668.00;;;8.84;97.95
5952;BME280;3001;42.622;23.194;2023-02-28T00:56:53;91667.06;;;8.75;97.97
5952;BME280;3001;42.622;23.194;2023-02-28T00:59:20;91658.47;;;8.80;98.88
5952;BME280;3001;42.622;23.194;2023-02-28T01:01:47;91662.59;;;8.81;99.98
5952;BME280;3001;42.622;23.194;2023-02-28T01:04:14;91664.47;;;8.75;99.95
5952;BME280;3001;42.622;23.194;2023-02-28T01:06:42;91655.66;;;8.76;100.00
5952;BME280;3001;42.622;23.194;2023-02-28T01:09:09;91652.66;;;8.88;100.00
5952;BME280;3001;42.622;23.194;2023-02-28T01:11:36;91653.50;;;8.83;99.70
5952;BME280;3001;42.622;23.194;2023-02-28T01:14:03;91649.09;;;8.65;99.93
5952;BME280;3001;42.622;23.194;2023-02-28T01:16:30;91653.13;;;8.71;99.96
5952;BME280;3001;42.622;23.194;2023-02-28T01:18:57;91659.38;;;8.70;99.61
5952;BME280;3001;42.622;23.194;2023-02-28T01:21:24;91660.56;;;8.78;98.99
5952;BME280;3001;42.622;23.194;2023-02-28T01:23:52;91657.75;;;8.74;99.12
5952;BME280;3001;42.622;23.194;2023-02-28T01:26:22;91652.72;;;8.83;98.20
5952;BME280;3001;42.622;23.194;2023-02-28T01:28:50;91651.03;;;8.73;99.00
5952;BME280;3001;42.622;23.194;2023-02-28T01:31:17;91652.56;;;8.74;98.91
5952;BME280;3001;42.622;23.194;2023-02-28T01:33:45;91656.38;;;8.63;98.47
5952;BME280;3001;42.622;23.194;2023-02-28T01:36:13;91659.22;;;8.44;99.73
5952;BME280;3001;42.622;23.194;2023-02-28T01:38:40;91652.28;;;8.39;100.00
5952;BME280;3001;42.622;23.194;2023-02-28T01:41:14;91662.94;;;8.38;100.00
5952;BME280;3001;42.622;23.194;2023-02-28T01:43:59;91654.88;;;8.57;100.00
5952;BME280;3001;42.622;23.194;2023-02-28T01:46:28;91661.97;;;8.52;100.00
5952;BME280;3001;42.622;23.194;2023-02-28T01:49:02;91657.59;;;8.48;100.00
5952;BME280;3001;42.622;23.194;2023-02-28T01:51:35;91655.03;;;8.66;100.00
5952;BME280;3001;42.622;23.194;2023-02-28T01:54:08;91660.66;;;8.73;99.67
5952;BME280;3001;42.622;23.194;2023-02-28T01:56:43;91662.19;;;8.74;100.00
5952;BME280;3001;42.622;23.194;2023-02-28T01:59:14;91650.47;;;8.76;99.84
5952;BME280;3001;42.622;23.194;2023-02-28T02:01:46;91660.44;;;8.69;99.63
5952;BME280;3001;42.622;23.194;2023-02-28T02:04:13;91661.41;;;8.55;100.00
5952;BME280;3001;42.622;23.194;2023-02-28T02:06:42;91663.44;;;8.58;100.00
5952;BME280;3001;42.622;23.194;2023-02-28T02:09:10;91660.66;;;8.73;98.92
5952;BME280;3001;42.622;23.194;2023-02-28T02:11:37;91659.25;;;8.80;97.58
5952;BME280;3001;42.622;23.194;2023-02-28T02:17:22;91666.72;;;8.63;97.95
5952;BME280;3001;42.622;23.194;2023-02-28T02:20:24;91662.16;;;8.55;99.63
5952;BME280;3001;42.622;23.194;2023-02-28T02:25:56;91657.84;;;8.51;98.42
5952;BME280;3001;42.622;23.194;2023-02-28T02:28:48;91661.81;;;8.44;98.50
5952;BME280;3001;42.622;23.194;2023-02-28T02:31:32;91667.06;;;8.39;98.25
5952;BME280;3001;42.622;23.194;2023-02-28T02:34:33;91661.00;;;8.25;99.79
5952;BME280;3001;42.622;23.194;2023-02-28T02:37:15;91657.84;;;8.28;100.00
5952;BME280;3001;42.622;23.194;2023-02-28T02:39:49;91671.19;;;8.40;98.77
5952;BME280;3001;42.622;23.194;2023-02-28T02:42:24;91663.47;;;8.35;98.98
5952;BME280;3001;42.622;23.194;2023-02-28T02:44:58;91670.06;;;8.22;99.09
5952;BME280;3001;42.622;23.194;2023-02-28T02:47:29;91670.47;;;8.34;98.83
5952;BME280;3001;42.622;23.194;2023-02-28T02:50:02;91682.53;;;8.20;99.06
5952;BME280;3001;42.622;23.194;2023-02-28T02:52:34;91670.63;;;8.19;98.93
5952;BME280;3001;42.622;23.194;2023-02-28T02:55:03;91666.09;;;8.06;99.64
5952;BME280;3001;42.622;23.194;2023-02-28T02:57:34;91667.19;;;7.77;100.00
5952;BME280;3001;42.622;23.194;2023-02-28T03:00:04;91673.72;;;7.93;100.00
5952;BME280;3001;42.622;23.194;2023-02-28T03:02:35;91677.81;;;7.99;100.00
5952;BME280;3001;42.622;23.194;2023-02-28T03:05:06;91678.97;;;8.11;100.00
5952;BME280;3001;42.622;23.194;2023-02-28T03:07:34;91686.03;;;8.06;100.00
5952;BME280;3001;42.622;23.194;2023-02-28T03:10:02;91678.69;;;8.13;100.00
5952;BME280;3001;42.622;23.194;2023-02-28T03:12:32;91684.16;;;8.11;100.00
5952;BME280;3001;42.622;23.194;2023-02-28T03:15:12;91690.91;;;7.84;98.23
5952;BME280;3001;42.622;23.194;2023-02-28T03:17:52;91688.81;;;7.86;98.94
5952;BME280;3001;42.622;23.194;2023-02-28T03:20:35;91687.97;;;7.67;98.69
5952;BME280;3001;42.622;23.194;2023-02-28T03:23:12;91698.13;;;7.58;100.00
5952;BME280;3001;42.622;23.194;2023-02-28T03:25:51;91696.22;;;7.69;99.28
5952;BME280;3001;42.622;23.194;2023-02-28T03:28:24;91687.41;;;7.70;97.63
5952;BME280;3001;42.622;23.194;2023-02-28T03:30:57;91685.16;;;7.63;95.77
5952;BME280;3001;42.622;23.194;2023-02-28T03:33:28;91696.09;;;7.55;97.50
5952;BME280;3001;42.622;23.194;2023-02-28T03:36:01;91695.34;;;7.50;97.01
5952;BME280;3001;42.622;23.194;2023-02-28T03:38:33;91704.94;;;7.44;95.67
5952;BME280;3001;42.622;23.194;2023-02-28T03:41:05;91697.94;;;7.16;97.25
5952;BME280;3001;42.622;23.194;2023-02-28T03:43:37;91702.03;;;7.22;96.13
5952;BME280;3001;42.622;23.194;2023-02-28T03:46:08;91705.50;;;7.08;97.32
5952;BME280;3001;42.622;23.194;2023-02-28T03:48:40;91708.56;;;7.10;97.06
5952;BME280;3001;42.622;23.194;2023-02-28T03:51:11;91705.03;;;7.01;97.46
5952;BME280;3001;42.622;23.194;2023-02-28T03:53:43;91702.50;;;6.96;99.01
5952;BME280;3001;42.622;23.194;2023-02-28T03:56:15;91702.50;;;6.96;99.97
5952;BME280;3001;42.622;23.194;2023-02-28T03:58:47;91707.63;;;7.01;99.27
5952;BME280;3001;42.622;23.194;2023-02-28T04:01:20;91698.31;;;7.00;98.49
5952;BME280;3001;42.622;23.194;2023-02-28T04:03:49;91709.63;;;7.09;97.64
5952;BME280;3001;42.622;23.194;2023-02-28T04:06:20;91699.09;;;7.00;98.20
5952;BME280;3001;42.622;23.194;2023-02-28T04:08:48;91705.28;;;6.99;98.81
5952;BME280;3001;42.622;23.194;2023-02-28T04:11:20;91700.97;;;6.90;100.00
5952;BME280;3001;42.622;23.194;2023-02-28T04:13:48;91704.19;;;7.10;99.70
5952;BME280;3001;42.622;23.194;2023-02-28T04:16:15;91704.94;;;7.16;100.00
5952;BME280;3001;42.622;23.194;2023-02-28T04:18:42;91704.41;;;7.14;100.00
5952;BME280;3001;42.622;23.194;2023-02-28T04:21:09;91709.25;;;7.25;100.00
5952;BME280;3001;42.622;23.194;2023-02-28T04:23:37;91701.22;;;7.27;100.00
5952;BME280;3001;42.622;23.194;2023-02-28T04:26:04;91701.19;;;7.32;100.00
5952;BME280;3001;42.622;23.194;2023-02-28T04:28:31;91695.91;;;7.47;100.00
5952;BME280;3001;42.622;23.194;2023-02-28T04:30:59;91696.38;;;7.49;100.00
5952;BME280;3001;42.622;23.194;2023-02-28T04:33:26;91695.53;;;7.58;100.00
5952;BME280;3001;42.622;23.194;2023-02-28T04:35:59;91694.53;;;7.54;100.00
5952;BME280;3001;42.622;23.194;2023-02-28T04:38:28;91696.72;;;7.71;100.00
5952;BME280;3001;42.622;23.194;2023-02-28T04:40:58;91699.72;;;7.83;100.00
5952;BME280;3001;42.622;23.194;2023-02-28T04:43:26;91704.47;;;7.71;100.00
5952;BME280;3001;42.622;23.194;2023-02-28T04:45:53;91710.53;;;7.56;100.00
5952;BME280;3001;42.622;23.194;2023-02-28T04:48:22;91711.81;;;7.59;100.00
5952;BME280;3001;42.622;23.194;2023-02-28T04:50:49;91714.56;;;7.72;100.00
5952;BME280;3001;42.622;23.194;2023-02-28T04:53:15;91721.50;;;7.77;100.00
5952;BME280;3001;42.622;23.194;2023-02-28T04:55:42;91725.28;;;7.84;100.00
5952;BME280;3001;42.622;23.194;2023-02-28T04:58:10;91725.19;;;7.94;100.00
5952;BME280;3001;42.622;23.194;2023-02-28T05:00:37;91730.59;;;7.98;100.00
5952;BME280;3001;42.622;23.194;2023-02-28T05:03:04;91727.00;;;7.94;100.00
5952;BME280;3001;42.622;23.194;2023-02-28T05:05:31;91732.28;;;8.12;100.00
5952;BME280;3001;42.622;23.194;2023-02-28T05:07:58;91734.63;;;8.09;100.00
5952;BME280;3001;42.622;23.194;2023-02-28T05:10:25;91735.66;;;8.08;100.00
5952;BME280;3001;42.622;23.194;2023-02-28T05:12:52;91735.97;;;7.78;100.00
5952;BME280;3001;42.622;23.194;2023-02-28T05:15:20;91727.47;;;7.72;100.00
5952;BME280;3001;42.622;23.194;2023-02-28T05:17:46;91742.03;;;7.92;100.00
5952;BME280;3001;42.622;23.194;2023-02-28T05:20:13;91738.25;;;8.08;100.00
5952;BME280;3001;42.622;23.194;2023-02-28T05:22:40;91742.81;;;7.92;100.00
5952;BME280;3001;42.622;23.194;2023-02-28T05:25:08;91742.38;;;8.09;100.00
5952;BME280;3001;42.622;23.194;2023-02-28T05:27:37;91744.25;;;8.03;100.00
5952;BME280;3001;42.622;23.194;2023-02-28T05:30:05;91743.25;;;7.99;100.00
5952;BME280;3001;42.622;23.194;2023-02-28T05:32:36;91753.84;;;8.03;100.00
5952;BME280;3001;42.622;23.194;2023-02-28T05:35:04;91751.31;;;7.98;100.00
5952;BME280;3001;42.622;23.194;2023-02-28T05:37:31;91756.75;;;7.96;100.00
5952;BME280;3001;42.622;23.194;2023-02-28T05:39:58;91752.25;;;8.07;100.00
5952;BME280;3001;42.622;23.194;2023-02-28T05:42:24;91759.59;;;8.23;100.00
5952;BME280;3001;42.622;23.194;2023-02-28T05:44:51;91764.19;;;8.31;100.00
5952;BME280;3001;42.622;23.194;2023-02-28T05:47:18;91772.63;;;8.42;100.00
5952;BME280;3001;42.622;23.194;2023-02-28T05:49:46;91758.63;;;8.43;100.00
5952;BME280;3001;42.622;23.194;2023-02-28T05:52:12;91770.72;;;8.47;100.00
5952;BME280;3001;42.622;23.194;2023-02-28T05:54:39;91768.88;;;8.52;99.72
5952;BME280;3001;42.622;23.194;2023-02-28T05:57:06;91769.56;;;8.35;99.93
5952;BME280;3001;42.622;23.194;2023-02-28T05:59:33;91769.88;;;8.33;100.00
5952;BME280;3001;42.622;23.194;2023-02-28T06:01:59;91775.59;;;8.53;100.00
5952;BME280;3001;42.622;23.194;2023-02-28T06:04:26;91781.31;;;8.51;100.00
5952;BME280;3001;42.622;23.194;2023-02-28T06:06:54;91771.78;;;8.46;100.00
5952;BME280;3001;42.622;23.194;2023-02-28T06:09:23;91781.19;;;8.37;99.57
5952;BME280;3001;42.622;23.194;2023-02-28T06:11:50;91773.09;;;8.20;100.00
5952;BME280;3001;42.622;23.194;2023-02-28T06:14:19;91786.16;;;8.34;99.66
5952;BME280;3001;42.622;23.194;2023-02-28T06:16:46;91784.06;;;8.36;100.00
5952;BME280;3001;42.622;23.194;2023-02-28T06:19:13;91789.47;;;8.39;100.00
5952;BME280;3001;42.622;23.194;2023-02-28T06:21:40;91783.72;;;8.42;100.00
5952;BME280;3001;42.622;23.194;2023-02-28T06:24:08;91781.72;;;8.62;100.00
5952;BME280;3001;42.622;23.194;2023-02-28T06:26:35;91785.91;;;8.58;100.00
5952;BME280;3001;42.622;23.194;2023-02-28T06:29:02;91784.63;;;8.56;100.00
5952;BME280;3001;42.622;23.194;2023-02-28T06:31:29;91779.31;;;8.66;100.00
5952;BME280;3001;42.622;23.194;2023-02-28T06:33:56;91794.63;;;8.86;100.00
5952;BME280;3001;42.622;23.194;2023-02-28T06:36:22;91792.88;;;8.81;100.00
5952;BME280;3001;42.622;23.194;2023-02-28T06:38:49;91790.00;;;8.83;100.00
5952;BME280;3001;42.622;23.194;2023-02-28T06:41:22;91794.28;;;8.92;99.61
5952;BME280;3001;42.622;23.194;2023-02-28T06:43:49;91788.19;;;9.25;98.76
5952;BME280;3001;42.622;23.194;2023-02-28T06:46:16;91782.03;;;9.21;98.77
5952;BME280;3001;42.622;23.194;2023-02-28T06:48:43;91791.69;;;9.34;97.97
5952;BME280;3001;42.622;23.194;2023-02-28T06:51:12;91795.47;;;9.23;98.95
5952;BME280;3001;42.622;23.194;2023-02-28T06:53:40;91800.22;;;9.16;99.46
5952;BME280;3001;42.622;23.194;2023-02-28T06:56:09;91802.47;;;9.23;99.61
5952;BME280;3001;42.622;23.194;2023-02-28T06:58:37;91803.66;;;9.12;99.87
5952;BME280;3001;42.622;23.194;2023-02-28T07:01:05;91813.13;;;9.21;100.00
5952;BME280;3001;42.622;23.194;2023-02-28T07:03:34;91802.75;;;9.21;100.00
5952;BME280;3001;42.622;23.194;2023-02-28T07:06:01;91796.53;;;9.22;100.00
5952;BME280;3001;42.622;23.194;2023-02-28T07:08:29;91811.03;;;9.23;99.62
5952;BME280;3001;42.622;23.194;2023-02-28T07:10:57;91809.63;;;9.31;100.00
5952;BME280;3001;42.622;23.194;2023-02-28T07:13:24;91814.19;;;9.39;99.88
5952;BME280;3001;42.622;23.194;2023-02-28T07:15:56;91813.63;;;9.60;99.08
5952;BME280;3001;42.622;23.194;2023-02-28T07:18:24;91812.19;;;9.68;99.06
5952;BME280;3001;42.622;23.194;2023-02-28T07:20:51;91816.72;;;9.62;99.47
5952;BME280;3001;42.622;23.194;2023-02-28T07:23:18;91812.28;;;9.63;99.24
5952;BME280;3001;42.622;23.194;2023-02-28T07:25:45;91811.03;;;9.60;98.97
5952;BME280;3001;42.622;23.194;2023-02-28T07:28:12;91816.00;;;9.57;99.31
5952;BME280;3001;42.622;23.194;2023-02-28T07:30:39;91807.81;;;9.50;99.47
5952;BME280;3001;42.622;23.194;2023-02-28T07:33:08;91813.41;;;9.38;99.51
5952;BME280;3001;42.622;23.194;2023-02-28T07:35:34;91812.91;;;9.36;99.29
5952;BME280;3001;42.622;23.194;2023-02-28T07:38:01;91815.94;;;9.43;99.38
5952;BME280;3001;42.622;23.194;2023-02-28T07:40:29;91817.03;;;9.37;100.00
5952;BME280;3001;42.622;23.194;2023-02-28T07:42:55;91817.00;;;9.42;100.00
5952;BME280;3001;42.622;23.194;2023-02-28T07:45:22;91816.13;;;9.28;100.00
5952;BME280;3001;42.622;23.194;2023-02-28T07:47:49;91816.44;;;9.45;100.00
5952;BME280;3001;42.622;23.194;2023-02-28T07:50:17;91810.75;;;9.43;100.00
5952;BME280;3001;42.622;23.194;2023-02-28T07:52:43;91809.34;;;9.51;100.00
5952;BME280;3001;42.622;23.194;2023-02-28T07:55:10;91815.31;;;9.51;100.00
5952;BME280;3001;42.622;23.194;2023-02-28T07:57:37;91810.34;;;9.55;100.00
5952;BME280;3001;42.622;23.194;2023-02-28T08:00:05;91805.06;;;9.60;100.00
5952;BME280;3001;42.622;23.194;2023-02-28T08:02:32;91810.59;;;9.72;100.00
5952;BME280;3001;42.622;23.194;2023-02-28T08:04:59;91808.81;;;9.86;99.70
5952;BME280;3001;42.622;23.194;2023-02-28T08:07:27;91801.34;;;9.66;100.00
5952;BME280;3001;42.622;23.194;2023-02-28T08:09:54;91805.69;;;9.70;100.00
5952;BME280;3001;42.622;23.194;2023-02-28T08:12:21;91820.91;;;9.77;100.00
5952;BME280;3001;42.622;23.194;2023-02-28T08:14:47;91819.38;;;9.76;100.00
5952;BME280;3001;42.622;23.194;2023-02-28T08:17:14;91819.91;;;9.91;100.00
5952;BME280;3001;42.622;23.194;2023-02-28T08:19:41;91829.44;;;9.96;100.00
5952;BME280;3001;42.622;23.194;2023-02-28T08:22:07;91834.31;;;9.97;100.00
5952;BME280;3001;42.622;23.194;2023-02-28T08:24:35;91829.28;;;10.06;100.00
5952;BME280;3001;42.622;23.194;2023-02-28T08:27:02;91825.28;;;10.13;100.00
5952;BME280;3001;42.622;23.194;2023-02-28T08:29:29;91828.50;;;10.24;99.93
5952;BME280;3001;42.622;23.194;2023-02-28T08:31:55;91833.38;;;10.12;100.00
5952;BME280;3001;42.622;23.194;2023-02-28T08:34:24;91834.25;;;10.21;100.00
5952;BME280;3001;42.622;23.194;2023-02-28T08:36:50;91832.53;;;10.29;99.48
5952;BME280;3001;42.622;23.194;2023-02-28T08:39:18;91828.88;;;10.30;99.76
5952;BME280;3001;42.622;23.194;2023-02-28T08:41:46;91836.69;;;10.30;99.16
5952;BME280;3001;42.622;23.194;2023-02-28T08:44:13;91832.84;;;10.28;99.03
5952;BME280;3001;42.622;23.194;2023-02-28T08:46:39;91829.47;;;10.27;99.74
5952;BME280;3001;42.622;23.194;2023-02-28T08:49:06;91824.13;;;10.37;99.12
5952;BME280;3001;42.622;23.194;2023-02-28T08:51:34;91827.56;;;10.33;99.95
5952;BME280;3001;42.622;23.194;2023-02-28T08:54:01;91831.13;;;10.37;99.11
5952;BME280;3001;42.622;23.194;2023-02-28T08:56:28;91833.25;;;10.48;98.61
5952;BME280;3001;42.622;23.194;2023-02-28T08:58:57;91824.59;;;10.39;99.11
5952;BME280;3001;42.622;23.194;2023-02-28T09:01:25;91828.97;;;10.57;98.29
5952;BME280;3001;42.622;23.194;2023-02-28T09:03:54;91827.59;;;10.46;99.72
5952;BME280;3001;42.622;23.194;2023-02-28T09:06:23;91825.41;;;10.53;99.84
5952;BME280;3001;42.622;23.194;2023-02-28T09:08:50;91816.94;;;10.61;99.39
5952;BME280;3001;42.622;23.194;2023-02-28T09:11:18;91805.97;;;10.64;99.62
5952;BME280;3001;42.622;23.194;2023-02-28T09:13:45;91816.66;;;10.90;99.02
5952;BME280;3001;42.622;23.194;2023-02-28T09:16:14;91820.69;;;10.96;99.13
5952;BME280;3001;42.622;23.194;2023-02-28T09:18:42;91820.50;;;10.92;99.37
5952;BME280;3001;42.622;23.194;2023-02-28T09:21:11;91825.72;;;11.06;99.12
5952;BME280;3001;42.622;23.194;2023-02-28T09:23:39;91820.31;;;11.02;99.63
5952;BME280;3001;42.622;23.194;2023-02-28T09:26:06;91814.16;;;11.12;99.89
5952;BME280;3001;42.622;23.194;2023-02-28T09:28:33;91808.59;;;11.05;100.00
5952;BME280;3001;42.622;23.194;2023-02-28T09:31:00;91819.53;;;11.02;100.00
5952;BME280;3001;42.622;23.194;2023-02-28T09:33:31;91815.88;;;11.16;100.00
5952;BME280;3001;42.622;23.194;2023-02-28T09:35:59;91813.94;;;11.08;100.00
5952;BME280;3001;42.622;23.194;2023-02-28T09:38:26;91813.69;;;11.10;100.00
5952;BME280;3001;42.622;23.194;2023-02-28T09:40:56;91811.81;;;11.10;100.00
5952;BME280;3001;42.622;23.194;2023-02-28T09:43:26;91815.41;;;11.14;100.00
5952;BME280;3001;42.622;23.194;2023-02-28T09:45:57;91811.28;;;11.13;100.00
5952;BME280;3001;42.622;23.194;2023-02-28T09:48:32;91807.50;;;11.19;100.00
5952;BME280;3001;42.622;23.194;2023-02-28T09:51:03;91811.47;;;11.52;99.33
5952;BME280;3001;42.622;23.194;2023-02-28T09:53:32;91809.72;;;11.26;100.00
5952;BME280;3001;42.622;23.194;2023-02-28T09:56:01;91799.47;;;11.29;99.74
5952;BME280;3001;42.622;23.194;2023-02-28T09:58:35;91805.16;;;11.31;99.70
5952;BME280;3001;42.622;23.194;2023-02-28T10:01:09;91804.97;;;11.41;100.00
5952;BME280;3001;42.622;23.194;2023-02-28T10:03:43;91805.72;;;11.42;100.00
5952;BME280;3001;42.622;23.194;2023-02-28T10:06:15;91801.09;;;11.39;100.00
5952;BME280;3001;42.622;23.194;2023-02-28T10:08:47;91791.88;;;11.33;100.00
5952;BME280;3001;42.622;23.194;2023-02-28T10:11:17;91788.00;;;11.44;100.00
5952;BME280;3001;42.622;23.194;2023-02-28T10:13:53;91791.16;;;11.54;100.00
5952;BME280;3001;42.622;23.194;2023-02-28T10:16:30;91794.03;;;11.66;99.51
5952;BME280;3001;42.622;23.194;2023-02-28T10:19:02;91794.16;;;11.61;99.41
5952;BME280;3001;42.622;23.194;2023-02-28T10:21:35;91786.69;;;11.68;99.27
5952;BME280;3001;42.622;23.194;2023-02-28T10:24:14;91787.88;;;11.62;99.62
5952;BME280;3001;42.622;23.194;2023-02-28T10:26:47;91780.06;;;11.62;100.00
5952;BME280;3001;42.622;23.194;2023-02-28T10:29:14;91775.34;;;11.64;100.00
5952;BME280;3001;42.622;23.194;2023-02-28T10:31:41;91775.06;;;11.66;99.86
5952;BME280;3001;42.622;23.194;2023-02-28T10:34:12;91772.47;;;11.66;100.00
5952;BME280;3001;42.622;23.194;2023-02-28T10:36:39;91769.28;;;11.69;100.00
5952;BME280;3001;42.622;23.194;2023-02-28T10:39:38;91765.91;;;11.55;100.00
5952;BME280;3001;42.622;23.194;2023-02-28T10:42:19;91762.47;;;11.59;100.00
5952;BME280;3001;42.622;23.194;2023-02-28T10:44:46;91766.72;;;11.77;100.00
5952;BME280;3001;42.622;23.194;2023-02-28T10:47:14;91761.16;;;11.92;100.00
5952;BME280;3001;42.622;23.194;2023-02-28T10:49:49;91759.03;;;11.94;100.00
5952;BME280;3001;42.622;23.194;2023-02-28T10:52:33;91737.91;;;11.96;100.00
5952;BME280;3001;42.622;23.194;2023-02-28T10:55:15;91750.44;;;12.15;100.00
5952;BME280;3001;42.622;23.194;2023-02-28T10:57:42;91746.13;;;12.11;100.00
5952;BME280;3001;42.622;23.194;2023-02-28T11:00:15;91739.69;;;12.08;100.00
5952;BME280;3001;42.622;23.194;2023-02-28T11:02:42;91741.81;;;12.37;100.00
5952;BME280;3001;42.622;23.194;2023-02-28T11:05:25;91737.66;;;12.27;100.00
5952;BME280;3001;42.622;23.194;2023-02-28T11:07:53;91735.66;;;12.33;100.00
5952;BME280;3001;42.622;23.194;2023-02-28T11:10:24;91739.00;;;12.55;99.42
5952;BME280;3001;42.622;23.194;2023-02-28T11:12:55;91737.19;;;12.34;100.00
5952;BME280;3001;42.622;23.194;2023-02-28T11:15:24;91732.63;;;12.39;100.00
5952;BME280;3001;42.622;23.194;2023-02-28T11:17:57;91724.09;;;12.56;100.00
5952;BME280;3001;42.622;23.194;2023-02-28T11:20:28;91721.50;;;12.56;100.00
5952;BME280;3001;42.622;23.194;2023-02-28T11:22:56;91720.00;;;12.63;100.00
5952;BME280;3001;42.622;23.194;2023-02-28T11:25:25;91721.75;;;12.76;100.00
5952;BME280;3001;42.622;23.194;2023-02-28T11:27:54;91721.31;;;12.83;100.00
5952;BME280;3001;42.622;23.194;2023-02-28T11:30:31;91715.06;;;12.92;100.00
5952;BME280;3001;42.622;23.194;2023-02-28T11:32:59;91711.84;;;12.95;99.93
5952;BME280;3001;42.622;23.194;2023-02-28T11:35:31;91708.00;;;12.93;100.00
5952;BME280;3001;42.622;23.194;2023-02-28T11:38:00;91712.34;;;13.06;100.00
5952;BME280;3001;42.622;23.194;2023-02-28T11:40:39;91703.75;;;13.22;98.98
5952;BME280;3001;42.622;23.194;2023-02-28T11:43:24;91704.22;;;13.33;98.01
5952;BME280;3001;42.622;23.194;2023-02-28T11:46:03;91707.00;;;13.53;97.04
5952;BME280;3001;42.622;23.194;2023-02-28T11:48:34;91704.41;;;13.53;97.19
5952;BME280;3001;42.622;23.194;2023-02-28T11:51:15;91703.91;;;13.68;97.03
5952;BME280;3001;42.622;23.194;2023-02-28T11:54:01;91701.63;;;13.83;96.65
5952;BME280;3001;42.622;23.194;2023-02-28T11:56:37;91706.03;;;14.00;95.63
5952;BME280;3001;42.622;23.194;2023-02-28T11:59:22;91701.25;;;14.19;96.17
5952;BME280;3001;42.622;23.194;2023-02-28T12:02:15;91690.63;;;14.32;95.16
5952;BME280;3001;42.622;23.194;2023-02-28T12:04:53;91704.56;;;14.45;93.18
5952;BME280;3001;42.622;23.194;2023-02-28T12:07:31;91704.34;;;14.58;91.72
5952;BME280;3001;42.622;23.194;2023-02-28T12:10:05;91705.88;;;14.59;91.07
5952;BME280;3001;42.622;23.194;2023-02-28T12:12:43;91704.50;;;14.62;90.28
5952;BME280;3001;42.622;23.194;2023-02-28T12:15:24;91698.22;;;14.54;90.24
5952;BME280;3001;42.622;23.194;2023-02-28T12:18:02;91708.22;;;14.90;89.69
5952;BME280;3001;42.622;23.194;2023-02-28T12:20:38;91699.00;;;14.84;89.09
5952;BME280;3001;42.622;23.194;2023-02-28T12:23:27;91700.16;;;15.03;88.94
5952;BME280;3001;42.622;23.194;2023-02-28T12:26:07;91698.88;;;15.09;88.98
5952;BME280;3001;42.622;23.194;2023-02-28T12:28:41;91698.19;;;15.21;87.94
5952;BME280;3001;42.622;23.194;2023-02-28T12:31:11;91694.47;;;15.30;86.99
5952;BME280;3001;42.622;23.194;2023-02-28T12:33:42;91700.09;;;15.41;86.48
5952;BME280;3001;42.622;23.194;2023-02-28T12:36:14;91697.88;;;15.51;85.32
5952;BME280;3001;42.622;23.194;2023-02-28T12:38:47;91694.06;;;15.40;84.28
5952;BME280;3001;42.622;23.194;2023-02-28T12:41:18;91700.97;;;15.45;83.22
5952;BME280;3001;42.622;23.194;2023-02-28T12:43:48;91691.59;;;15.44;82.27
5952;BME280;3001;42.622;23.194;2023-02-28T12:46:20;91682.91;;;15.31;82.94
5952;BME280;3001;42.622;23.194;2023-02-28T12:48:50;91674.44;;;15.26;82.44
5952;BME280;3001;42.622;23.194;2023-02-28T12:51:21;91682.72;;;15.36;81.66
5952;BME280;3001;42.622;23.194;2023-02-28T12:53:57;91685.03;;;15.38;82.27
5952;BME280;3001;42.622;23.194;2023-02-28T12:56:35;91681.53;;;15.34;82.22
5952;BME280;3001;42.622;23.194;2023-02-28T12:59:13;91673.22;;;15.32;82.02
5952;BME280;3001;42.622;23.194;2023-02-28T13:01:57;91672.03;;;15.21;82.69
5952;BME280;3001;42.622;23.194;2023-02-28T13:04:50;91674.56;;;15.09;82.14
5952;BME280;3001;42.622;23.194;2023-02-28T13:10:16;91667.75;;;15.16;82.15
5952;BME280;3001;42.622;23.194;2023-02-28T13:12:49;91670.13;;;15.30;81.69
5952;BME280;3001;42.622;23.194;2023-02-28T13:15:19;91670.59;;;15.32;82.07
5952;BME280;3001;42.622;23.194;2023-02-28T13:17:51;91660.25;;;15.35;81.32
5952;BME280;3001;42.622;23.194;2023-02-28T13:20:20;91661.53;;;15.29;81.36
5952;BME280;3001;42.622;23.194;2023-02-28T13:22:51;91656.13;;;15.26;81.57
5952;BME280;3001;42.622;23.194;2023-02-28T13:25:53;91661.88;;;15.19;81.09
5952;BME280;3001;42.622;23.194;2023-02-28T13:31:33;91659.25;;;15.19;81.06
5952;BME280;3001;42.622;23.194;2023-02-28T13:34:19;91656.81;;;15.43;80.44
5952;BME280;3001;42.622;23.194;2023-02-28T13:36:46;91651.69;;;15.26;81.13
5952;BME280;3001;42.622;23.194;2023-02-28T13:39:47;91648.84;;;15.11;81.54
5952;BME280;3001;42.622;23.194;2023-02-28T13:42:34;91646.84;;;15.37;80.48